Time;durP1;ratioP1;P1;durP2;ratioP2;P2;SDS_P1;SDS_P2;PMS_P1;PMS_P2;Temp;Humidity;BMP_temperature;BMP_pressure;BME280_temperature;BME280_humidity;BME280_pressure;Samples;Min_cycle;Max_cycle;Signal;HPM_P1;HPM_P2
2022/05/02 00:01:29;;;;;;;;;;;;;;;26.25;25.33;101075.06;5055729;28;1909;-33
2022/05/02 00:03:55;;;;;;;;;;;;;;;26.25;25.43;101071.50;5056257;28;778;-34
2022/05/02 00:06:20;;;;;;;;;;;;;;;26.23;25.25;101066.28;5061556;28;858;-31
2022/05/02 00:08:45;;;;;;;;;;;;;;;26.23;25.24;101060.91;5065741;28;878;-33
2022/05/02 00:11:10;;;;;;;;;;;;;;;26.24;25.44;101054.47;5064360;28;786;-31
2022/05/02 00:13:36;;;;;;;;;;;;;;;26.25;25.19;101058.03;5059142;28;846;-31
2022/05/02 00:16:01;;;;;;;;;;;;;;;26.34;25.38;101061.59;5059202;28;877;-28
2022/05/02 00:18:28;;;;;;;;;;;;;;;26.33;25.30;101054.50;5059499;28;852;-31
2022/05/02 00:20:53;;;;;;;;;;;;;;;26.30;25.45;101050.28;5072814;28;1901;-28
2022/05/02 00:23:18;;;;;;;;;;;;;;;26.32;25.28;101044.72;5076062;28;870;-29
2022/05/02 00:25:44;;;;;;;;;;;;;;;26.34;25.47;101040.84;5059372;28;803;-30
2022/05/02 00:28:13;;;;;;;;;;;;;;;26.32;25.33;101047.41;5059525;28;832;-33
2022/05/02 00:30:38;;;;;;;;;;;;;;;26.31;25.47;101049.25;5078488;28;873;-28
2022/05/02 00:33:04;;;;;;;;;;;;;;;26.31;25.19;101054.63;5072037;28;870;-30
2022/05/02 00:35:29;;;;;;;;;;;;;;;26.32;25.58;101056.34;5040547;28;879;-35
2022/05/02 00:37:54;;;;;;;;;;;;;;;26.33;25.32;101058.06;5059477;28;750;-29
2022/05/02 00:40:20;;;;;;;;;;;;;;;26.34;25.22;101057.03;5072030;28;1967;-31
2022/05/02 00:42:45;;;;;;;;;;;;;;;26.32;25.44;101058.19;5058708;28;826;-32
2022/05/02 00:45:11;;;;;;;;;;;;;;;26.34;25.33;101058.91;5063107;28;781;-29
2022/05/02 00:47:37;;;;;;;;;;;;;;;26.36;25.16;101051.50;5061014;28;793;-29
2022/05/02 00:50:02;;;;;;;;;;;;;;;26.34;25.38;101059.72;5059447;28;869;-32
2022/05/02 00:52:28;;;;;;;;;;;;;;;26.32;25.18;101066.28;5058643;28;766;-29
2022/05/02 00:54:53;;;;;;;;;;;;;;;26.34;25.05;101059.72;5065313;28;817;-31
2022/05/02 00:57:18;;;;;;;;;;;;;;;26.33;25.18;101065.28;5062051;28;882;-30
2022/05/02 00:59:43;;;;;;;;;;;;;;;26.35;25.26;101066.81;5061818;28;994;-31
2022/05/02 01:02:09;;;;;;;;;;;;;;;26.36;25.40;101059.59;5058370;28;1918;-29
2022/05/02 01:04:35;;;;;;;;;;;;;;;26.35;25.18;101063.28;5058969;28;806;-30
2022/05/02 01:07:10;;;;;;;;;;;;;;;26.38;25.17;101061.09;5058480;28;787;-29
2022/05/02 01:09:39;;;;;;;;;;;;;;;26.37;25.19;101059.41;5064914;28;840;-31
2022/05/02 01:12:06;;;;;;;;;;;;;;;26.38;25.32;101063.78;5065192;28;918;-28
2022/05/02 01:14:34;;;;;;;;;;;;;;;26.38;25.49;101062.94;5058101;28;789;-29
2022/05/02 01:17:00;;;;;;;;;;;;;;;26.39;25.22;101065.44;5058035;28;758;-28
2022/05/02 01:19:25;;;;;;;;;;;;;;;26.38;25.51;101061.09;5058538;28;1202;-31
2022/05/02 01:21:50;;;;;;;;;;;;;;;26.38;25.55;101061.09;5057789;28;1906;-29
2022/05/02 01:24:16;;;;;;;;;;;;;;;26.36;25.16;101056.88;5071371;28;874;-31
2022/05/02 01:26:41;;;;;;;;;;;;;;;26.36;25.18;101055.00;5077609;28;793;-30
2022/05/02 01:29:06;;;;;;;;;;;;;;;26.44;25.30;101056.88;5077046;28;849;-31
2022/05/02 01:31:32;;;;;;;;;;;;;;;26.39;25.29;101049.28;5077181;28;920;-31
2022/05/02 01:33:57;;;;;;;;;;;;;;;26.40;25.22;101047.44;5077087;28;857;-31
2022/05/02 01:36:22;;;;;;;;;;;;;;;26.44;25.17;101048.78;5071289;28;773;-32
2022/05/02 01:38:48;;;;;;;;;;;;;;;26.39;25.15;101049.28;5058074;28;856;-31
2022/05/02 01:41:13;;;;;;;;;;;;;;;26.36;25.09;101052.31;5064413;28;1964;-31
2022/05/02 01:43:38;;;;;;;;;;;;;;;26.32;25.04;101045.56;5057755;28;798;-28
2022/05/02 01:46:05;;;;;;;;;;;;;;;26.35;25.06;101055.19;5058165;28;923;-29
2022/05/02 01:48:30;;;;;;;;;;;;;;;26.33;25.11;101049.09;5065299;28;807;-32
2022/05/02 01:50:57;;;;;;;;;;;;;;;26.42;25.19;101053.50;5058680;28;782;-32
2022/05/02 01:53:22;;;;;;;;;;;;;;;26.35;25.21;101045.25;5057318;28;915;-29
2022/05/02 01:55:47;;;;;;;;;;;;;;;26.35;25.30;101042.56;5064602;28;776;-29
2022/05/02 01:58:13;;;;;;;;;;;;;;;26.35;25.16;101039.84;5057753;28;793;-33
2022/05/02 02:00:38;;;;;;;;;;;;;;;26.34;25.36;101043.53;5057065;28;1969;-31
2022/05/02 02:03:03;;;;;;;;;;;;;;;26.34;25.40;101045.41;5063943;28;873;-31
2022/05/02 02:08:13;;;;;;;;;;;;;;;26.36;25.06;101049.63;5058496;28;911;-30
2022/05/02 02:10:38;;;;;;;;;;;;;;;26.33;25.41;101049.97;5064419;28;805;-29
2022/05/02 02:13:04;;;;;;;;;;;;;;;26.34;25.40;101045.41;5057928;28;726;-28
2022/05/02 02:15:29;;;;;;;;;;;;;;;26.38;25.14;101049.44;5063890;28;767;-30
2022/05/02 02:17:54;;;;;;;;;;;;;;;26.40;25.24;101047.44;5057239;28;793;-30
2022/05/02 02:20:20;;;;;;;;;;;;;;;26.34;25.35;101037.31;5057264;28;1894;-30
2022/05/02 02:22:45;;;;;;;;;;;;;;;26.33;25.51;101046.41;5057137;28;886;-31
2022/05/02 02:25:10;;;;;;;;;;;;;;;26.38;25.03;101044.91;5070138;28;1061;-32
2022/05/02 02:27:35;;;;;;;;;;;;;;;26.32;25.54;101047.41;5068247;28;826;-31
2022/05/02 02:30:01;;;;;;;;;;;;;;;26.23;25.33;101038.47;5056421;28;805;-31
2022/05/02 02:32:26;;;;;;;;;;;;;;;26.26;25.50;101041.69;5056901;28;885;-29
2022/05/02 02:34:52;;;;;;;;;;;;;;;26.25;25.49;101044.53;5057207;28;848;-30
2022/05/02 02:37:17;;;;;;;;;;;;;;;26.23;25.56;101041.16;5056401;28;940;-32
2022/05/02 02:39:43;;;;;;;;;;;;;;;26.25;25.24;101044.53;5059220;28;892;-35
2022/05/02 02:42:08;;;;;;;;;;;;;;;26.26;25.61;101046.22;5061695;28;1960;-30
2022/05/02 02:44:33;;;;;;;;;;;;;;;26.23;25.50;101041.16;5056371;28;1099;-30
2022/05/02 02:46:59;;;;;;;;;;;;;;;26.22;25.22;101044.88;5057191;28;858;-30
2022/05/02 02:49:24;;;;;;;;;;;;;;;26.23;25.36;101043.88;5056812;28;846;-31
2022/05/02 02:51:49;;;;;;;;;;;;;;;26.25;25.41;101036.44;5060703;28;785;-28
2022/05/02 02:54:15;;;;;;;;;;;;;;;26.24;25.23;101037.47;5068790;28;881;-30
2022/05/02 02:56:40;;;;;;;;;;;;;;;26.22;25.36;101039.50;5076378;28;874;-31
2022/05/02 02:59:05;;;;;;;;;;;;;;;26.20;25.45;101033.41;5075604;28;862;-32
2022/05/02 03:01:31;;;;;;;;;;;;;;;26.23;25.47;101033.06;5075543;28;1910;-33
2022/05/02 03:03:56;;;;;;;;;;;;;;;26.24;25.49;101026.69;5057214;28;1038;-30
2022/05/02 03:06:21;;;;;;;;;;;;;;;26.24;25.19;101032.09;5062992;28;896;-29
2022/05/02 03:08:47;;;;;;;;;;;;;;;26.20;25.48;101036.13;5061819;28;766;-31
2022/05/02 03:11:12;;;;;;;;;;;;;;;26.22;25.43;101029.56;5058185;28;743;-30
2022/05/02 03:13:37;;;;;;;;;;;;;;;26.19;25.39;101032.59;5056430;28;731;-31
2022/05/02 03:16:03;;;;;;;;;;;;;;;26.24;25.08;101030.22;5056429;28;816;-28
2022/05/02 03:18:28;;;;;;;;;;;;;;;26.31;25.31;101033.06;5062854;28;785;-28
2022/05/02 03:20:54;;;;;;;;;;;;;;;26.36;24.99;101036.13;5056360;28;1957;-28
2022/05/02 03:23:19;;;;;;;;;;;;;;;26.36;25.33;101024.53;5056853;28;972;-28
2022/05/02 03:25:44;;;;;;;;;;;;;;;26.28;25.28;101018.09;5062563;28;806;-30
2022/05/02 03:28:10;;;;;;;;;;;;;;;26.34;24.81;101021.97;5056167;28;917;-31
2022/05/02 03:30:35;;;;;;;;;;;;;;;26.27;21.93;101026.34;5062617;28;870;-31
2022/05/02 03:33:01;;;;;;;;;;;;;;;26.21;21.29;101022.47;5056415;28;777;-30
2022/05/02 03:35:26;;;;;;;;;;;;;;;26.16;20.81;101027.53;5055611;28;806;-31
2022/05/02 03:37:52;;;;;;;;;;;;;;;26.15;20.63;101029.41;5056535;28;820;-32
2022/05/02 03:40:17;;;;;;;;;;;;;;;26.04;20.62;101019.78;5063493;28;951;-29
2022/05/02 03:42:42;;;;;;;;;;;;;;;26.06;20.51;101019.59;5060536;28;1070;-33
2022/05/02 03:45:08;;;;;;;;;;;;;;;25.80;20.39;101028.72;5066060;28;916;-30
2022/05/02 03:47:33;;;;;;;;;;;;;;;24.39;20.95;101019.03;5060346;28;755;-28
2022/05/02 03:49:58;;;;;;;;;;;;;;;23.57;22.00;101017.34;5059728;28;823;-31
2022/05/02 03:52:24;;;;;;;;;;;;;;;23.25;22.86;101014.13;5060201;28;806;-32
2022/05/02 03:54:49;;;;;;;;;;;;;;;22.91;22.85;101017.41;5066768;28;894;-28
2022/05/02 03:57:14;;;;;;;;;;;;;;;22.72;23.11;101014.66;5072236;28;858;-28
2022/05/02 03:59:40;;;;;;;;;;;;;;;21.89;24.01;101013.34;5059377;28;1240;-28
2022/05/02 04:02:05;;;;;;;;;;;;;;;21.85;24.12;101010.13;5059760;28;1989;-28
2022/05/02 04:04:30;;;;;;;;;;;;;;;21.88;24.21;101009.00;5059640;28;1037;-31
2022/05/02 04:06:56;;;;;;;;;;;;;;;22.14;25.42;100997.69;5076756;28;966;-30
2022/05/02 04:09:22;;;;;;;;;;;;;;;23.33;24.01;100994.56;5068882;28;873;-32
2022/05/02 04:11:47;;;;;;;;;;;;;;;23.83;23.06;100998.63;5062168;28;712;-30
2022/05/02 04:14:12;;;;;;;;;;;;;;;24.01;23.08;100997.75;5059210;28;905;-31
2022/05/02 04:16:38;;;;;;;;;;;;;;;24.00;22.11;100992.53;5059075;28;846;-28
2022/05/02 04:19:03;;;;;;;;;;;;;;;23.92;22.28;100988.78;5059243;28;1147;-29
2022/05/02 04:21:28;;;;;;;;;;;;;;;24.01;22.50;100994.22;5061384;28;1898;-32
2022/05/02 04:23:54;;;;;;;;;;;;;;;24.09;22.95;100997.81;5065586;28;873;-31
2022/05/02 04:26:19;;;;;;;;;;;;;;;24.21;23.23;101001.13;5078929;28;842;-30
2022/05/02 04:28:44;;;;;;;;;;;;;;;24.26;23.53;100994.41;5078154;28;1248;-29
2022/05/02 04:31:10;;;;;;;;;;;;;;;24.30;23.58;100993.97;5078368;28;802;-28
2022/05/02 04:33:35;;;;;;;;;;;;;;;24.38;23.89;100985.09;5077913;28;825;-30
2022/05/02 04:36:01;;;;;;;;;;;;;;;24.40;24.06;100976.88;5064014;28;872;-28
2022/05/02 04:38:28;;;;;;;;;;;;;;;24.43;24.30;100974.72;5059941;28;844;-33
2022/05/02 04:40:54;;;;;;;;;;;;;;;24.45;24.44;100974.56;5064880;28;1898;-33
2022/05/02 04:43:19;;;;;;;;;;;;;;;24.51;24.52;100976.59;5058537;28;831;-31
2022/05/02 04:45:44;;;;;;;;;;;;;;;24.61;24.56;100978.34;5059121;28;838;-31
2022/05/02 04:48:10;;;;;;;;;;;;;;;24.74;24.36;100969.84;5065445;28;801;-31
2022/05/02 04:50:35;;;;;;;;;;;;;;;24.64;24.58;100964.56;5058765;28;754;-30
2022/05/02 04:53:01;;;;;;;;;;;;;;;24.64;24.90;100965.41;5057995;28;778;-32
2022/05/02 04:55:26;;;;;;;;;;;;;;;24.65;24.96;100968.94;5065064;28;926;-31
2022/05/02 04:57:51;;;;;;;;;;;;;;;24.73;25.07;100963.59;5058824;28;834;-29
2022/05/02 05:00:17;;;;;;;;;;;;;;;24.74;25.21;100977.91;5065082;28;1215;-30
2022/05/02 05:02:42;;;;;;;;;;;;;;;24.77;25.31;100964.97;5058916;28;1934;-32
2022/05/02 05:05:08;;;;;;;;;;;;;;;24.78;25.34;100969.34;5058486;28;743;-31
2022/05/02 05:07:35;;;;;;;;;;;;;;;24.78;25.48;100963.09;5058566;28;758;-29
2022/05/02 05:10:00;;;;;;;;;;;;;;;24.91;25.66;100966.22;5065326;28;814;-29
2022/05/02 05:12:44;;;;;;;;;;;;;;;24.85;25.83;100964.16;5061216;28;921;-32
2022/05/02 05:18:01;;;;;;;;;;;;;;;24.92;25.94;100954.44;5057613;28;651;-30
2022/05/02 05:20:29;;;;;;;;;;;;;;;24.95;25.80;100961.34;5077443;28;1956;-30
2022/05/02 05:22:54;;;;;;;;;;;;;;;24.94;25.78;100967.75;5077701;28;872;-30
2022/05/02 05:25:40;;;;;;;;;;;;;;;24.97;25.97;100961.19;5070732;28;1061;-35
2022/05/02 05:28:13;;;;;;;;;;;;;;;24.99;25.89;100961.88;5057441;28;1172;-28
2022/05/02 05:30:40;;;;;;;;;;;;;;;25.01;26.06;100962.53;5057914;28;818;-29
2022/05/02 05:33:15;;;;;;;;;;;;;;;25.01;26.00;100966.09;5039574;28;1094;-30
2022/05/02 05:35:45;;;;;;;;;;;;;;;25.05;26.11;100966.59;5058344;28;774;-29
2022/05/02 05:38:11;;;;;;;;;;;;;;;25.05;26.08;100964.75;5044188;28;780;-31
2022/05/02 05:40:37;;;;;;;;;;;;;;;25.12;26.08;100969.47;5064148;28;1902;-31
2022/05/02 05:43:06;;;;;;;;;;;;;;;25.14;26.00;100972.88;5058199;28;804;-31
2022/05/02 05:45:31;;;;;;;;;;;;;;;25.17;26.01;100978.72;5040569;28;872;-28
2022/05/02 05:47:57;;;;;;;;;;;;;;;25.22;26.09;100980.97;5057929;28;885;-29
2022/05/02 05:50:23;;;;;;;;;;;;;;;25.33;25.90;100990.56;5062734;28;790;-35
2022/05/02 05:52:51;;;;;;;;;;;;;;;25.26;26.16;100984.13;5059330;28;793;-31
2022/05/02 05:55:29;;;;;;;;;;;;;;;25.22;26.19;100988.19;5064514;28;805;-29
2022/05/02 05:58:03;;;;;;;;;;;;;;;25.21;26.24;100979.25;5070573;28;838;-29
2022/05/02 06:00:29;;;;;;;;;;;;;;;25.28;25.98;100984.81;5058195;28;1906;-31
2022/05/02 06:02:55;;;;;;;;;;;;;;;25.44;25.69;100982.16;5071778;28;895;-28
2022/05/02 06:05:20;;;;;;;;;;;;;;;25.52;25.82;100980.50;5062686;28;817;-32
2022/05/02 06:07:46;;;;;;;;;;;;;;;25.51;25.76;100978.78;5057127;28;727;-28
2022/05/02 06:10:12;;;;;;;;;;;;;;;25.41;25.74;100984.34;5063863;28;965;-31
2022/05/02 06:12:38;;;;;;;;;;;;;;;25.41;25.64;100987.03;5038965;28;916;-29
2022/05/02 06:20:33;;;;;;;;;;;;;;;25.46;25.94;100986.56;5056862;28;1909;-30
2022/05/02 06:22:59;;;;;;;;;;;;;;;25.48;25.94;100988.06;5057581;28;822;-29
2022/05/02 06:25:24;;;;;;;;;;;;;;;25.53;26.04;100990.25;5063345;28;1093;-31
2022/05/02 06:27:50;;;;;;;;;;;;;;;25.58;26.34;100987.06;5038585;28;996;-31
2022/05/02 06:30:15;;;;;;;;;;;;;;;25.57;26.20;100997.00;5063386;28;876;-30
2022/05/02 06:32:42;;;;;;;;;;;;;;;25.60;26.28;100991.28;5056713;28;795;-31
2022/05/02 06:35:08;;;;;;;;;;;;;;;25.59;26.34;100988.75;5056872;28;754;-29
2022/05/02 06:37:45;;;;;;;;;;;;;;;25.63;26.20;100993.66;5056820;28;846;-30
2022/05/02 06:40:16;;;;;;;;;;;;;;;25.67;25.90;100995.00;5063195;28;1010;-32
2022/05/02 06:42:56;;;;;;;;;;;;;;;25.69;26.04;100994.88;5063400;28;1910;-31
2022/05/02 06:45:23;;;;;;;;;;;;;;;25.70;26.01;101001.06;5056868;28;941;-31
2022/05/02 06:47:51;;;;;;;;;;;;;;;25.80;26.26;101001.78;5038019;28;1083;-30
2022/05/02 06:50:17;;;;;;;;;;;;;;;25.90;25.87;100997.06;5056712;28;910;-30
2022/05/02 06:53:01;;;;;;;;;;;;;;;25.85;26.06;101006.66;5056800;28;807;-32
2022/05/02 06:55:45;;;;;;;;;;;;;;;25.80;26.11;101008.00;5065877;28;943;-32
2022/05/02 06:58:33;;;;;;;;;;;;;;;25.94;26.16;101005.66;5056477;28;838;-29
2022/05/02 07:01:04;;;;;;;;;;;;;;;25.88;26.31;101007.16;5018702;28;1968;-30
2022/05/02 07:03:35;;;;;;;;;;;;;;;25.94;26.39;101013.75;5044129;28;1268;-30
2022/05/02 07:06:16;;;;;;;;;;;;;;;25.86;26.26;101006.47;5051910;28;790;-35
2022/05/02 07:08:52;;;;;;;;;;;;;;;25.82;25.90;101002.44;5070839;28;871;-29
2022/05/02 07:11:18;;;;;;;;;;;;;;;25.85;26.13;101009.34;5059895;28;825;-29
2022/05/02 07:13:56;;;;;;;;;;;;;;;26.01;26.11;101008.50;5038110;28;973;-29
2022/05/02 07:16:22;;;;;;;;;;;;;;;25.98;26.03;101019.63;5042252;28;896;-31
2022/05/02 07:19:00;;;;;;;;;;;;;;;25.95;25.75;101009.16;5062764;28;1058;-29
2022/05/02 07:21:39;;;;;;;;;;;;;;;25.94;26.04;101015.59;5070456;28;1898;-33
2022/05/02 07:24:10;;;;;;;;;;;;;;;25.94;25.98;101002.97;5056882;28;944;-32
2022/05/02 07:26:36;;;;;;;;;;;;;;;25.99;26.07;101010.53;5062886;28;882;-30
2022/05/02 07:29:01;;;;;;;;;;;;;;;25.97;26.06;101008.00;5063094;28;779;-28
2022/05/02 07:31:26;;;;;;;;;;;;;;;25.95;26.22;101009.16;5063034;28;955;-30
2022/05/02 07:33:52;;;;;;;;;;;;;;;26.03;26.19;101010.03;5051643;28;829;-29
2022/05/02 07:36:22;;;;;;;;;;;;;;;26.04;25.76;101011.69;5062481;28;945;-30
2022/05/02 07:38:50;;;;;;;;;;;;;;;26.07;26.15;101009.69;5069692;28;832;-32
2022/05/02 07:41:27;;;;;;;;;;;;;;;26.09;25.96;101004.97;5062913;28;1953;-32
2022/05/02 07:43:52;;;;;;;;;;;;;;;26.07;26.31;100993.50;5046760;28;854;-31
2022/05/02 07:46:19;;;;;;;;;;;;;;;26.15;26.47;100996.19;5069072;28;1030;-31
2022/05/02 07:48:44;;;;;;;;;;;;;;;26.09;26.83;101000.41;5062720;28;811;-29
2022/05/02 07:51:09;;;;;;;;;;;;;;;26.23;26.34;100996.19;5044058;28;1399;-31
2022/05/02 07:53:36;;;;;;;;;;;;;;;26.25;26.49;100993.31;5045170;28;883;-30
2022/05/02 07:56:01;;;;;;;;;;;;;;;26.26;26.59;100994.97;5050888;28;874;-31
2022/05/02 07:58:26;;;;;;;;;;;;;;;26.24;26.27;100991.63;5055368;28;943;-28
2022/05/02 08:00:51;;;;;;;;;;;;;;;26.19;26.33;100992.16;5077772;28;1977;-31
2022/05/02 08:03:19;;;;;;;;;;;;;;;26.21;26.45;100992.81;5081793;28;841;-30
2022/05/02 08:05:44;;;;;;;;;;;;;;;26.25;26.30;100990.63;5063990;28;818;-30
2022/05/02 08:08:13;;;;;;;;;;;;;;;26.27;26.00;100977.81;5063619;28;931;-28
2022/05/02 08:10:45;;;;;;;;;;;;;;;26.34;25.93;100986.91;5057216;28;853;-30
2022/05/02 08:13:29;;;;;;;;;;;;;;;26.31;26.10;100981.81;5063221;28;872;-31
2022/05/02 08:15:54;;;;;;;;;;;;;;;26.45;25.91;100983.00;5082023;28;841;-33
2022/05/02 08:18:31;;;;;;;;;;;;;;;26.51;26.17;100987.72;5081424;28;888;-29
2022/05/02 08:21:05;;;;;;;;;;;;;;;26.58;26.11;100978.91;5074903;28;1910;-28
2022/05/02 08:29:34;;;;;;;;;;;;;;;26.62;26.34;100973.03;5078473;28;754;-30
2022/05/02 08:32:05;;;;;;;;;;;;;;;26.79;25.96;100978.34;5078233;28;818;-30
2022/05/02 08:34:41;;;;;;;;;;;;;;;26.63;26.42;100973.84;5078796;28;739;-30
2022/05/02 08:37:21;;;;;;;;;;;;;;;26.56;26.54;100972.88;5050845;28;969;-29
2022/05/02 08:39:47;;;;;;;;;;;;;;;26.66;26.41;100978.88;5069529;28;896;-32
2022/05/02 08:42:22;;;;;;;;;;;;;;;26.65;26.22;100972.66;5058968;28;1973;-28
2022/05/02 08:44:53;;;;;;;;;;;;;;;26.65;26.44;100966.44;5058907;28;875;-28
2022/05/02 08:47:18;;;;;;;;;;;;;;;26.74;26.16;100961.84;5058376;28;802;-29
2022/05/02 08:49:53;;;;;;;;;;;;;;;26.90;25.82;100960.91;5069895;28;934;-28
2022/05/02 08:52:52;;;;;;;;;;;;;;;26.83;26.00;100957.22;5041346;28;747;-28
2022/05/02 08:55:36;;;;;;;;;;;;;;;26.90;26.07;100950.97;5023388;28;1722;-29
2022/05/02 08:58:19;;;;;;;;;;;;;;;26.87;26.25;100954.03;5063806;28;731;-33
2022/05/02 09:01:03;;;;;;;;;;;;;;;26.90;26.64;100950.97;5075854;28;1910;-30
2022/05/02 09:03:47;;;;;;;;;;;;;;;26.86;26.30;100941.53;5058783;28;755;-33
2022/05/02 09:06:18;;;;;;;;;;;;;;;26.94;26.23;100940.66;5058821;28;940;-28
2022/05/02 09:09:02;;;;;;;;;;;;;;;26.99;26.23;100937.44;5062137;28;824;-29
2022/05/02 09:11:34;;;;;;;;;;;;;;;26.94;26.51;100939.81;5058632;28;797;-29
2022/05/02 09:14:09;;;;;;;;;;;;;;;27.04;26.58;100945.88;5063374;28;821;-30
2022/05/02 09:16:49;;;;;;;;;;;;;;;27.04;26.58;100939.63;5062692;28;842;-32
2022/05/02 09:19:33;;;;;;;;;;;;;;;27.02;26.28;100915.50;5058595;28;897;-34
2022/05/02 09:22:17;;;;;;;;;;;;;;;26.91;26.85;100924.78;5057940;28;1967;-30
2022/05/02 09:25:01;;;;;;;;;;;;;;;27.00;26.49;100925.59;5058558;28;773;-29
2022/05/02 09:27:45;;;;;;;;;;;;;;;26.97;26.40;100925.97;5065227;28;888;-33
2022/05/02 09:30:25;;;;;;;;;;;;;;;27.02;26.63;100910.94;5058068;28;904;-29
2022/05/02 09:33:08;;;;;;;;;;;;;;;26.95;26.63;100917.19;5054123;28;1085;-32
2022/05/02 09:35:34;;;;;;;;;;;;;;;26.82;27.08;100915.94;5077172;28;802;-29
2022/05/02 09:38:03;;;;;;;;;;;;;;;26.84;27.21;100918.44;5058712;28;870;-28
2022/05/02 09:40:37;;;;;;;;;;;;;;;26.86;27.09;100911.03;5074216;28;794;-30
2022/05/02 09:43:05;;;;;;;;;;;;;;;26.92;27.11;100912.16;5039646;28;1141;-29
2022/05/02 09:51:31;;;;;;;;;;;;;;;27.01;26.87;100892.19;5073823;28;735;-32
2022/05/02 09:57:17;;;;;;;;;;;;;;;26.95;27.02;100901.84;5038609;28;927;-29
2022/05/02 09:59:43;;;;;;;;;;;;;;;26.92;27.01;100896.81;5057867;28;1159;-32
2022/05/02 10:02:18;;;;;;;;;;;;;;;26.87;27.20;100889.25;5057409;28;1963;-33
2022/05/02 10:05:03;;;;;;;;;;;;;;;27.00;27.00;100885.09;5076269;28;834;-29
2022/05/02 10:07:28;;;;;;;;;;;;;;;26.92;27.25;100874.34;5057336;28;785;-33
2022/05/02 10:10:02;;;;;;;;;;;;;;;26.97;27.15;100866.56;5070350;28;852;-28
2022/05/02 10:12:28;;;;;;;;;;;;;;;27.08;27.03;100871.59;5057127;28;826;-32
2022/05/02 10:14:59;;;;;;;;;;;;;;;27.10;26.85;100857.91;5057033;28;830;-32
2022/05/02 10:17:31;;;;;;;;;;;;;;;27.09;26.79;100854.34;5059595;28;857;-31
2022/05/02 10:19:56;;;;;;;;;;;;;;;27.13;27.04;100849.44;5042197;28;818;-31
2022/05/02 10:22:23;;;;;;;;;;;;;;;27.14;27.14;100841.16;5057027;28;1960;-31
2022/05/02 10:24:48;;;;;;;;;;;;;;;27.13;27.46;100838.63;5066296;28;887;-30
2022/05/02 10:27:33;;;;;;;;;;;;;;;27.20;27.05;100836.03;5076292;28;762;-29
2022/05/02 10:30:01;;;;;;;;;;;;;;;27.12;27.20;100818.91;5073914;28;804;-30
2022/05/02 10:32:46;;;;;;;;;;;;;;;27.05;27.57;100827.91;5063245;28;774;-30
2022/05/02 10:35:17;;;;;;;;;;;;;;;27.15;27.22;100820.41;5053249;28;735;-30
2022/05/02 10:37:43;;;;;;;;;;;;;;;27.20;26.97;100818.00;5075811;28;822;-29
2022/05/02 10:40:10;;;;;;;;;;;;;;;27.25;27.11;100817.44;5065513;28;986;-29
2022/05/02 10:42:35;;;;;;;;;;;;;;;27.22;26.74;100807.84;5056807;28;1898;-28
2022/05/02 10:45:08;;;;;;;;;;;;;;;27.26;27.28;100811.00;5051117;28;817;-33
2022/05/02 10:47:39;;;;;;;;;;;;;;;27.28;27.19;100817.06;5056790;28;930;-28
2022/05/02 10:50:07;;;;;;;;;;;;;;;27.31;27.17;100810.47;5056392;28;826;-31
2022/05/02 10:52:44;;;;;;;;;;;;;;;27.32;27.26;100812.16;5056310;28;754;-31
2022/05/02 10:55:18;;;;;;;;;;;;;;;27.28;26.86;100806.28;5045822;28;999;-29
2022/05/02 10:57:51;;;;;;;;;;;;;;;27.31;27.07;100803.19;5056933;28;809;-31
2022/05/02 11:00:16;;;;;;;;;;;;;;;27.35;27.12;100793.72;5056184;28;1030;-28
2022/05/02 11:02:55;;;;;;;;;;;;;;;27.37;26.83;100786.28;5056143;28;1989;-31
2022/05/02 11:05:27;;;;;;;;;;;;;;;27.34;27.31;100783.91;5038176;28;774;-30
2022/05/02 11:07:54;;;;;;;;;;;;;;;27.37;27.09;100786.28;5056166;28;769;-32
2022/05/02 11:10:20;;;;;;;;;;;;;;;27.39;27.21;100778.00;5064186;28;830;-29
2022/05/02 11:12:45;;;;;;;;;;;;;;;27.41;27.38;100780.50;5056090;28;798;-28
2022/05/02 11:15:14;;;;;;;;;;;;;;;27.46;27.21;100787.00;5056068;28;1563;-30
2022/05/02 11:17:43;;;;;;;;;;;;;;;27.42;27.04;100785.72;5038915;28;933;-29
2022/05/02 11:22:59;;;;;;;;;;;;;;;27.34;27.01;100783.91;5062046;28;1963;-32
2022/05/02 11:25:25;;;;;;;;;;;;;;;27.48;26.81;100792.22;5063011;28;1469;-34
2022/05/02 11:27:53;;;;;;;;;;;;;;;27.53;26.71;100797.94;5055963;28;847;-28
2022/05/02 11:30:21;;;;;;;;;;;;;;;27.46;27.09;100797.81;5056007;28;802;-30
2022/05/02 11:32:53;;;;;;;;;;;;;;;27.57;27.00;100790.28;5038473;28;755;-30
2022/05/02 11:35:21;;;;;;;;;;;;;;;27.55;26.98;100795.88;5068255;28;829;-30
2022/05/02 11:38:05;;;;;;;;;;;;;;;27.61;26.85;100783.50;5055892;28;1523;-30
2022/05/02 11:40:33;;;;;;;;;;;;;;;27.56;26.99;100789.44;5056408;28;869;-30
2022/05/02 11:42:58;;;;;;;;;;;;;;;27.61;26.92;100788.91;5056075;28;1910;-30
2022/05/02 11:45:43;;;;;;;;;;;;;;;27.57;26.81;100788.44;5055777;28;822;-33
2022/05/02 11:48:20;;;;;;;;;;;;;;;27.55;26.75;100792.34;5064379;28;834;-30
2022/05/02 11:50:46;;;;;;;;;;;;;;;27.61;26.91;100788.91;5055897;28;746;-31
2022/05/02 11:53:14;;;;;;;;;;;;;;;27.66;26.99;100786.47;5056139;28;899;-30
2022/05/02 11:55:40;;;;;;;;;;;;;;;27.62;27.03;100783.31;5062497;28;925;-28
2022/05/02 11:58:23;;;;;;;;;;;;;;;27.68;26.77;100781.75;5056250;28;814;-30
2022/05/02 12:00:55;;;;;;;;;;;;;;;27.62;26.52;100774.38;5061967;28;1977;-30
2022/05/02 12:03:24;;;;;;;;;;;;;;;27.61;26.64;100783.50;5040696;28;750;-28
2022/05/02 12:05:51;;;;;;;;;;;;;;;27.73;26.65;100778.50;5059697;28;825;-29
2022/05/02 12:08:33;;;;;;;;;;;;;;;27.68;26.91;100772.78;5059384;28;829;-30
2022/05/02 12:11:05;;;;;;;;;;;;;;;27.74;26.70;100772.06;5066435;28;821;-28
2022/05/02 12:13:48;;;;;;;;;;;;;;;27.73;26.93;100776.63;5066893;28;880;-32
2022/05/02 12:16:17;;;;;;;;;;;;;;;27.76;26.83;100791.63;5059701;28;851;-31
2022/05/02 12:18:43;;;;;;;;;;;;;;;27.70;26.07;100785.13;5059564;28;758;-29
2022/05/02 12:21:11;;;;;;;;;;;;;;;27.68;26.02;100792.56;5059431;28;1894;-32
2022/05/02 12:23:37;;;;;;;;;;;;;;;27.72;26.65;100791.19;5061260;28;907;-32
2022/05/02 12:26:03;;;;;;;;;;;;;;;27.82;26.45;100790.91;5054224;28;881;-30
2022/05/02 12:28:41;;;;;;;;;;;;;;;27.81;26.36;100786.50;5040887;28;1083;-28
2022/05/02 12:31:06;;;;;;;;;;;;;;;27.86;26.52;100786.78;5059257;28;813;-31
2022/05/02 12:33:32;;;;;;;;;;;;;;;27.77;25.90;100779.81;5059513;28;817;-30
2022/05/02 12:35:58;;;;;;;;;;;;;;;27.81;26.26;100783.81;5040869;28;929;-32
2022/05/02 12:38:25;;;;;;;;;;;;;;;27.93;26.56;100778.75;5066672;28;860;-29
2022/05/02 12:40:51;;;;;;;;;;;;;;;27.85;26.46;100792.38;5078448;28;1902;-32
2022/05/02 12:43:27;;;;;;;;;;;;;;;27.82;26.56;100787.34;5063222;28;832;-30
2022/05/02 12:45:52;;;;;;;;;;;;;;;27.72;26.39;100795.75;5058761;28;814;-31
2022/05/02 12:48:24;;;;;;;;;;;;;;;27.84;26.61;100788.81;5041136;28;819;-29
2022/05/02 12:50:50;;;;;;;;;;;;;;;27.82;26.27;100790.91;5043748;28;809;-29
2022/05/02 12:56:08;;;;;;;;;;;;;;;27.82;26.39;100793.59;5058629;28;646;-30
2022/05/02 13:01:21;;;;;;;;;;;;;;;27.77;26.64;100779.81;5073299;28;1898;-32
2022/05/02 13:03:55;;;;;;;;;;;;;;;27.78;26.58;100794.16;5075533;28;1064;-34
2022/05/02 13:06:20;;;;;;;;;;;;;;;27.85;26.49;100785.13;5057991;28;815;-31
2022/05/02 13:08:45;;;;;;;;;;;;;;;27.84;26.37;100791.53;5042057;28;1021;-29
2022/05/02 13:11:21;;;;;;;;;;;;;;;27.81;26.44;100796.50;5044172;28;876;-28
2022/05/02 13:13:52;;;;;;;;;;;;;;;27.74;26.61;100780.19;5057156;28;834;-31
2022/05/02 13:16:22;;;;;;;;;;;;;;;27.73;26.41;100789.31;5065326;28;854;-29
2022/05/02 13:18:47;;;;;;;;;;;;;;;27.72;26.59;100791.19;5042524;28;915;-29
2022/05/02 13:21:13;;;;;;;;;;;;;;;27.77;26.70;100787.91;5058074;28;1910;-28
2022/05/02 13:23:43;;;;;;;;;;;;;;;27.75;26.43;100784.56;5044448;28;930;-31
2022/05/02 13:26:28;;;;;;;;;;;;;;;27.78;26.64;100780.66;5060650;28;1058;-29
2022/05/02 13:29:09;;;;;;;;;;;;;;;27.76;26.49;100783.50;5063714;28;915;-34
2022/05/02 13:31:44;;;;;;;;;;;;;;;27.77;26.67;100769.00;5063419;28;866;-32
2022/05/02 13:34:30;;;;;;;;;;;;;;;27.69;26.95;100779.91;5057846;28;794;-29
2022/05/02 13:36:58;;;;;;;;;;;;;;;27.70;26.79;100760.78;5016835;28;1201;-32
2022/05/02 13:39:23;;;;;;;;;;;;;;;27.66;26.46;100772.97;5062858;28;822;-29